Etusivu
METAR-TAF:

METAR-TAF

Lentoasemat :

DeKalb Taylor Municipal Airport

DeKalb, Illinois, Yhdysvallat

Leveyspiiri: 41-55-55N, Pituuspiiri: 088-42-30W, korkeus merenpinnasta: 279 m

Tämänhetkinen sää

Tämä raportti tehtiin 22 minuuttia sitten, kello 12.35 UTC
Tuuli 4 kn idästä/koillisesta
Lämpötila 22°C
Kosteus 100%
Ilmanpaine 1013 hPa
Näkyvyys: 2.0 km
Hajanaisia pilviä 1300 ft:n korkeudessa
Hajonneita pilviä 2400 ft:n korkeudessa
Pilvistä 3000 ft:n korkeudessa

METAR: KDKB 181235Z AUTO 06004KT 1 1/4SM +VCTSRA SCT013 BKN024 OVC030 22/22 A2992 RMK AO2 LTG DSNT ALQS P0038 T02200220

Aika: 07:57 (12:57 UTC)


TAF: puuttuu

Säähavainnot ja -ennusteet yli 4000 lentoasemalta (METAR- ja TAF-raportit).

Käytössä olevat sääasemat on merkitty karttaan keltaisilla ja punaisilla pisteillä.

Aseta hiiri pisteen päälle nähdäksesi sääaseman nimen.

Klikkaa sitten nähdäksesi säähavainnot ja -ennusteet.

Kartan vaihtaminen: klikkaa mustalla rastilla varustettuja vihreitä pisteitä, niin voit zoomata sisään; viivalla varustettua vihreää pistettä, niin voit zoomata ulos tai vihreitä nuolia, niin pääset viereisille kartoille.


METAR-TAF: